Time;durP1;ratioP1;P1;durP2;ratioP2;P2;SDS_P1;SDS_P2;PMS_P1;PMS_P2;Temp;Humidity;BMP_temperature;BMP_pressure;BME280_temperature;BME280_humidity;BME280_pressure;Samples;Min_cycle;Max_cycle;Signal;HPM_P1;HPM_P2
2024/01/13 00:00:16;;;;;;;16.20;3.70;;;3.90;99.90;;;;;;5094154;28;20086;-78
2024/01/13 00:02:42;;;;;;;11.57;3.77;;;3.90;99.90;;;;;;5094218;28;20048;-78
2024/01/13 00:05:08;;;;;;;12.47;3.27;;;3.90;99.90;;;;;;5093044;28;20052;-78
2024/01/13 00:07:33;;;;;;;14.70;3.37;;;3.90;99.90;;;;;;5094178;28;20093;-78
2024/01/13 00:09:59;;;;;;;15.77;4.23;;;3.90;99.90;;;;;;5092946;28;20071;-78
2024/01/13 00:12:25;;;;;;;17.77;3.33;;;3.80;99.90;;;;;;5092910;28;20047;-79
2024/01/13 00:14:51;;;;;;;12.20;3.60;;;3.90;99.90;;;;;;5094136;28;20516;-79
2024/01/13 00:17:17;;;;;;;19.33;3.90;;;3.90;99.90;;;;;;5093952;28;20054;-79
2024/01/13 00:19:43;;;;;;;9.02;3.40;;;3.80;99.90;;;;;;5094053;28;20074;-79
2024/01/13 00:22:08;;;;;;;15.20;4.00;;;3.90;99.90;;;;;;5093758;28;20048;-79
2024/01/13 00:24:34;;;;;;;17.03;3.97;;;3.90;99.90;;;;;;5093375;28;20638;-79
2024/01/13 00:27:00;;;;;;;14.70;3.60;;;3.90;99.90;;;;;;5093933;28;20102;-79
2024/01/13 00:29:25;;;;;;;11.23;3.70;;;3.90;99.90;;;;;;5093217;28;20052;-79
2024/01/13 00:31:51;;;;;;;11.23;3.40;;;3.90;99.90;;;;;;5092950;28;20044;-79
2024/01/13 00:34:17;;;;;;;10.03;3.73;;;3.90;99.90;;;;;;5092572;28;20461;-79
2024/01/13 00:36:43;;;;;;;12.17;3.93;;;3.90;99.90;;;;;;5093578;28;20047;-79
2024/01/13 00:39:09;;;;;;;12.17;3.60;;;3.90;99.90;;;;;;5092322;28;20105;-79
2024/01/13 00:41:34;;;;;;;12.00;3.83;;;3.90;99.90;;;;;;5092418;28;20047;-79
2024/01/13 00:44:00;;;;;;;13.57;3.63;;;3.80;99.90;;;;;;5090405;28;20040;-79
2024/01/13 00:46:26;;;;;;;8.77;3.67;;;3.90;99.90;;;;;;5090574;28;20105;-79
2024/01/13 00:48:52;;;;;;;15.10;3.83;;;3.90;99.90;;;;;;5091340;28;20126;-79
2024/01/13 00:51:18;;;;;;;11.87;3.83;;;3.90;99.90;;;;;;5089695;28;20135;-79
2024/01/13 00:53:44;;;;;;;14.13;3.67;;;3.90;99.90;;;;;;5091570;28;20152;-79
2024/01/13 00:56:10;;;;;;;9.37;3.47;;;3.90;99.90;;;;;;5091170;28;20048;-78
2024/01/13 00:58:36;;;;;;;14.32;3.53;;;3.90;99.90;;;;;;5092586;28;20143;-79
2024/01/13 01:01:03;;;;;;;12.27;4.32;;;3.90;99.90;;;;;;5093380;28;20050;-79
2024/01/13 01:03:29;;;;;;;13.57;4.18;;;3.90;99.90;;;;;;5093054;28;20102;-78
2024/01/13 01:05:55;;;;;;;19.45;5.20;;;3.90;99.90;;;;;;5093244;28;20047;-78
2024/01/13 01:08:21;;;;;;;17.73;4.70;;;3.90;99.90;;;;;;5092939;28;20470;-78
2024/01/13 01:10:47;;;;;;;13.73;4.30;;;3.90;99.90;;;;;;5093413;28;20144;-78
2024/01/13 01:13:12;;;;;;;14.18;4.53;;;3.90;99.90;;;;;;5093008;28;20043;-78
2024/01/13 01:15:38;;;;;;;18.80;4.63;;;3.90;99.90;;;;;;5075524;28;20071;-78
2024/01/13 01:18:04;;;;;;;21.37;4.80;;;3.90;99.90;;;;;;5092048;28;20112;-79
2024/01/13 01:20:30;;;;;;;18.33;4.53;;;3.90;99.90;;;;;;5091933;28;20056;-78
2024/01/13 01:22:56;;;;;;;14.63;4.67;;;3.90;99.90;;;;;;5093040;28;20048;-78
2024/01/13 01:25:22;;;;;;;22.80;4.67;;;3.90;99.90;;;;;;5092978;28;20282;-78
2024/01/13 01:27:47;;;;;;;19.13;4.73;;;3.90;99.90;;;;;;5093105;28;20044;-79
2024/01/13 01:30:13;;;;;;;15.13;4.87;;;3.90;99.90;;;;;;5093025;28;20048;-79
2024/01/13 01:32:39;;;;;;;24.10;6.60;;;3.90;99.90;;;;;;5092242;28;20048;-79
2024/01/13 01:35:06;;;;;;;22.15;4.45;;;4.00;99.90;;;;;;5092471;28;20044;-79
2024/01/13 01:37:36;;;;;;;13.07;4.15;;;4.00;99.90;;;;;;5092687;28;20044;-78
2024/01/13 01:40:02;;;;;;;21.90;6.22;;;4.00;99.90;;;;;;5075334;28;20105;-79
2024/01/13 01:42:28;;;;;;;16.40;4.88;;;4.00;99.90;;;;;;5096238;28;20048;-78
2024/01/13 01:44:54;;;;;;;22.77;5.53;;;3.90;99.90;;;;;;5096972;28;20044;-79
2024/01/13 01:47:21;;;;;;;18.50;4.88;;;3.90;99.90;;;;;;5095763;28;20043;-79
2024/01/13 01:49:48;;;;;;;18.20;5.15;;;3.90;99.90;;;;;;5096830;28;20059;-79
2024/01/13 01:52:15;;;;;;;17.55;4.03;;;3.90;99.90;;;;;;5094162;28;20060;-79
2024/01/13 01:54:42;;;;;;;16.05;4.63;;;3.90;99.90;;;;;;5096692;28;20485;-79
2024/01/13 01:57:10;;;;;;;15.88;4.68;;;3.90;99.90;;;;;;5096802;28;20048;-78
2024/01/13 01:59:36;;;;;;;17.77;5.22;;;3.90;99.90;;;;;;5096592;28;20123;-78
2024/01/13 02:02:03;;;;;;;12.23;4.50;;;3.90;99.90;;;;;;5096689;28;20165;-79
2024/01/13 02:04:29;;;;;;;17.10;4.45;;;3.90;99.90;;;;;;5095969;28;20133;-78
2024/01/13 02:06:55;;;;;;;15.07;4.60;;;3.90;99.90;;;;;;5094899;28;20493;-78
2024/01/13 02:09:22;;;;;;;12.43;4.37;;;3.90;99.90;;;;;;5095276;28;20040;-78
2024/01/13 02:11:48;;;;;;;23.95;4.85;;;3.90;99.90;;;;;;5096594;28;20047;-78
2024/01/13 02:14:14;;;;;;;20.35;4.88;;;3.90;99.90;;;;;;5096644;28;20062;-78
2024/01/13 02:16:40;;;;;;;16.80;4.50;;;3.90;99.90;;;;;;5096043;28;20490;-78
2024/01/13 02:19:06;;;;;;;16.33;4.33;;;3.90;99.90;;;;;;5096321;28;20047;-78
2024/01/13 02:21:38;;;;;;;15.63;4.47;;;3.90;99.90;;;;;;5095859;28;20896;-78
2024/01/13 02:24:04;;;;;;;17.75;4.97;;;3.80;99.90;;;;;;5096578;28;20123;-78
2024/01/13 02:26:33;;;;;;;14.30;4.87;;;3.80;99.90;;;;;;5078064;28;20462;-78
2024/01/13 02:28:59;;;;;;;20.30;5.13;;;3.90;99.90;;;;;;5096303;28;20380;-78
2024/01/13 02:31:24;;;;;;;20.97;5.87;;;3.90;99.90;;;;;;5094974;28;20537;-78
2024/01/13 02:33:53;;;;;;;16.23;5.40;;;3.90;99.90;;;;;;5095930;28;20048;-79
2024/01/13 02:36:19;;;;;;;18.20;4.90;;;3.80;99.90;;;;;;5095998;28;20510;-79
2024/01/13 02:38:44;;;;;;;17.17;4.80;;;3.80;99.90;;;;;;5095842;28;20052;-79
2024/01/13 02:41:10;;;;;;;21.83;5.00;;;3.80;99.90;;;;;;5061370;28;20044;-78
2024/01/13 02:43:36;;;;;;;19.50;5.40;;;3.80;99.90;;;;;;5094295;28;20044;-78
2024/01/13 02:46:05;;;;;;;14.87;4.83;;;3.80;99.90;;;;;;5093699;28;20047;-78
2024/01/13 02:48:37;;;;;;;17.50;5.00;;;3.80;99.90;;;;;;5093378;28;20093;-78
2024/01/13 02:51:04;;;;;;;13.32;4.68;;;3.80;99.90;;;;;;5092576;28;20056;-78
2024/01/13 02:53:30;;;;;;;16.77;5.18;;;3.90;99.90;;;;;;5093138;28;20047;-77
2024/01/13 02:55:56;;;;;;;19.60;4.40;;;3.90;99.90;;;;;;5093593;28;20050;-78
2024/01/13 02:58:21;;;;;;;14.13;4.37;;;3.90;99.90;;;;;;5092570;28;20551;-78
2024/01/13 03:00:47;;;;;;;20.13;4.40;;;3.80;99.90;;;;;;5077503;28;20059;-78
2024/01/13 03:03:13;;;;;;;15.73;4.50;;;3.90;99.90;;;;;;5095373;28;20051;-78
2024/01/13 03:05:38;;;;;;;13.80;3.97;;;3.80;99.90;;;;;;5095426;28;20394;-78
2024/01/13 03:08:04;;;;;;;12.40;3.97;;;3.80;99.90;;;;;;5077628;28;20048;-79
2024/01/13 03:10:31;;;;;;;15.90;4.28;;;3.80;99.90;;;;;;5094088;28;20044;-78
2024/01/13 03:12:57;;;;;;;11.38;4.10;;;3.80;99.90;;;;;;5095239;28;20044;-79
2024/01/13 03:15:23;;;;;;;14.02;4.20;;;3.90;99.90;;;;;;5095111;28;20047;-78
2024/01/13 03:17:49;;;;;;;19.45;3.92;;;3.90;99.90;;;;;;5094810;28;20094;-79
2024/01/13 03:20:14;;;;;;;16.87;4.50;;;3.90;99.90;;;;;;5095298;28;20044;-79
2024/01/13 03:22:40;;;;;;;15.53;4.30;;;3.90;99.90;;;;;;5095001;28;20131;-79
2024/01/13 03:25:06;;;;;;;19.40;4.40;;;3.90;99.90;;;;;;5095100;28;20127;-79
2024/01/13 03:27:32;;;;;;;19.77;4.20;;;3.90;99.90;;;;;;5094769;28;20044;-78
2024/01/13 03:29:57;;;;;;;19.90;4.30;;;3.80;99.90;;;;;;5094874;28;20117;-79
2024/01/13 03:32:23;;;;;;;12.53;3.60;;;3.90;99.90;;;;;;5094727;28;20136;-79
2024/01/13 03:34:49;;;;;;;17.37;4.50;;;3.90;99.90;;;;;;5093786;28;20397;-78
2024/01/13 03:37:14;;;;;;;16.60;4.27;;;3.90;99.90;;;;;;5094790;28;20078;-78
2024/01/13 03:39:40;;;;;;;16.13;4.20;;;3.80;99.90;;;;;;5094582;28;20058;-78
2024/01/13 03:42:06;;;;;;;14.77;4.40;;;3.80;99.90;;;;;;5094979;28;20048;-78
2024/01/13 03:44:32;;;;;;;23.33;4.28;;;3.80;99.90;;;;;;5094460;28;20052;-78
2024/01/13 03:46:58;;;;;;;12.47;4.00;;;3.80;99.90;;;;;;5093549;28;20040;-79
2024/01/13 03:49:23;;;;;;;19.57;4.40;;;3.80;99.90;;;;;;5093814;28;20048;-78
2024/01/13 03:51:49;;;;;;;8.23;3.80;;;3.80;99.90;;;;;;5093030;28;20048;-78
2024/01/13 03:54:15;;;;;;;15.73;4.23;;;3.80;99.90;;;;;;5094521;28;20083;-78
2024/01/13 03:56:41;;;;;;;16.97;4.20;;;3.90;99.90;;;;;;5094243;28;20047;-78
2024/01/13 03:59:07;;;;;;;12.80;4.17;;;3.90;99.90;;;;;;5094439;28;20139;-78
2024/01/13 04:01:32;;;;;;;15.90;3.90;;;3.90;99.90;;;;;;5093824;28;20048;-78
2024/01/13 04:03:58;;;;;;;17.80;4.73;;;3.90;99.90;;;;;;5093628;28;20044;-78
2024/01/13 04:06:24;;;;;;;14.70;4.10;;;3.90;99.90;;;;;;5094381;28;20130;-78
2024/01/13 04:08:49;;;;;;;17.47;3.93;;;3.80;99.90;;;;;;5093044;28;20052;-78
2024/01/13 04:11:15;;;;;;;20.90;5.10;;;3.90;99.90;;;;;;5094480;28;20040;-78
2024/01/13 04:13:41;;;;;;;16.67;4.47;;;3.90;99.90;;;;;;5093819;28;20137;-78
2024/01/13 04:16:07;;;;;;;20.40;4.43;;;3.80;99.90;;;;;;5092924;28;20136;-78
2024/01/13 04:18:33;;;;;;;15.15;4.40;;;3.80;99.90;;;;;;5092457;28;20063;-78
2024/01/13 04:20:59;;;;;;;13.97;3.47;;;3.90;99.90;;;;;;5093806;28;20040;-78
2024/01/13 04:23:25;;;;;;;10.80;3.60;;;3.90;99.90;;;;;;5094000;28;20055;-78
2024/01/13 04:25:50;;;;;;;11.33;4.67;;;3.80;99.90;;;;;;5093679;28;20087;-78
2024/01/13 04:28:16;;;;;;;15.77;4.37;;;3.90;99.90;;;;;;5093842;28;20043;-78
2024/01/13 04:30:42;;;;;;;18.47;4.50;;;3.80;99.90;;;;;;5092314;28;20498;-78
2024/01/13 04:33:08;;;;;;;18.48;4.07;;;3.90;99.90;;;;;;5092992;28;20044;-78
2024/01/13 04:35:33;;;;;;;15.23;3.87;;;3.90;99.90;;;;;;5093880;28;20131;-79
2024/01/13 04:37:59;;;;;;;15.10;4.23;;;3.90;99.90;;;;;;5093557;28;20488;-78
2024/01/13 04:40:25;;;;;;;14.10;3.53;;;3.80;99.90;;;;;;5093892;28;20080;-78
2024/01/13 04:42:51;;;;;;;13.40;3.50;;;3.90;99.90;;;;;;5093480;28;20413;-79
2024/01/13 04:45:16;;;;;;;16.33;3.53;;;3.90;99.90;;;;;;5092412;28;20054;-79
2024/01/13 04:47:42;;;;;;;15.23;3.03;;;3.90;99.90;;;;;;5093318;28;20048;-79
2024/01/13 04:50:08;;;;;;;7.10;2.90;;;3.90;99.90;;;;;;5093632;28;20485;-79
2024/01/13 04:52:36;;;;;;;10.80;2.95;;;3.90;99.90;;;;;;5093469;28;20065;-79
2024/01/13 04:55:02;;;;;;;11.80;3.20;;;3.90;99.90;;;;;;5092253;28;20040;-78
2024/01/13 04:57:28;;;;;;;11.13;3.17;;;3.90;99.90;;;;;;5092125;28;20374;-79
2024/01/13 04:59:53;;;;;;;8.50;2.60;;;3.90;99.90;;;;;;5093089;28;20094;-79
2024/01/13 05:02:19;;;;;;;6.83;2.57;;;3.90;99.90;;;;;;5075616;28;20086;-79
2024/01/13 05:04:45;;;;;;;11.90;3.00;;;3.90;99.90;;;;;;5093254;28;20055;-79
2024/01/13 05:07:10;;;;;;;11.93;2.87;;;4.00;99.90;;;;;;5092618;28;20097;-79
2024/01/13 05:09:37;;;;;;;9.30;2.67;;;3.90;99.90;;;;;;5092347;28;20055;-79
2024/01/13 05:12:03;;;;;;;12.88;3.15;;;3.90;99.90;;;;;;5092017;28;20056;-79
2024/01/13 05:14:29;;;;;;;11.23;3.00;;;3.90;99.90;;;;;;5091762;28;20093;-79
2024/01/13 05:16:55;;;;;;;7.63;2.53;;;3.90;99.90;;;;;;5075182;28;20127;-79
2024/01/13 05:19:20;;;;;;;11.27;3.03;;;3.90;99.90;;;;;;5093259;28;20132;-79
2024/01/13 05:21:46;;;;;;;11.23;2.57;;;3.90;99.90;;;;;;5092959;28;20055;-79
2024/01/13 05:24:14;;;;;;;7.47;2.10;;;3.90;99.90;;;;;;5092087;28;20102;-79
2024/01/13 05:26:40;;;;;;;9.77;2.10;;;3.90;99.90;;;;;;5093060;28;20055;-80
2024/01/13 05:29:05;;;;;;;9.73;2.03;;;3.80;99.90;;;;;;5092723;28;20047;-80
2024/01/13 05:31:31;;;;;;;6.47;1.83;;;3.90;99.90;;;;;;5091960;28;20473;-80
2024/01/13 05:33:57;;;;;;;7.00;1.87;;;3.80;99.90;;;;;;5092927;28;20052;-80
2024/01/13 05:36:22;;;;;;;6.27;1.87;;;3.90;99.90;;;;;;5092960;28;20052;-80
2024/01/13 05:38:48;;;;;;;9.33;1.73;;;3.80;99.90;;;;;;5092858;28;20087;-79
2024/01/13 05:41:14;;;;;;;9.20;2.00;;;3.80;99.90;;;;;;5092868;28;20048;-79
2024/01/13 05:43:40;;;;;;;5.97;1.80;;;3.80;99.90;;;;;;5092873;28;20051;-79
2024/01/13 05:46:06;;;;;;;7.70;2.20;;;3.80;99.90;;;;;;5075010;28;20047;-80
2024/01/13 05:48:31;;;;;;;9.33;2.20;;;3.80;99.90;;;;;;5093039;28;20040;-79
2024/01/13 05:50:57;;;;;;;6.63;2.00;;;3.80;99.90;;;;;;5091551;28;20060;-79
2024/01/13 05:53:23;;;;;;;6.60;2.50;;;3.80;99.90;;;;;;5093159;28;20602;-79
2024/01/13 05:55:49;;;;;;;8.73;2.23;;;3.80;99.90;;;;;;5092669;28;20087;-78
2024/01/13 05:58:14;;;;;;;6.53;2.20;;;3.80;99.90;;;;;;5092622;28;20290;-79
2024/01/13 06:00:40;;;;;;;6.40;2.13;;;3.80;99.90;;;;;;5092937;28;20048;-79
2024/01/13 06:03:06;;;;;;;8.37;2.10;;;3.80;99.90;;;;;;5092660;28;20090;-79
2024/01/13 06:05:31;;;;;;;5.40;2.27;;;3.80;99.90;;;;;;5074978;28;20436;-79
2024/01/13 06:07:57;;;;;;;8.63;2.47;;;3.80;99.90;;;;;;5092531;28;20040;-79
2024/01/13 06:10:23;;;;;;;6.60;2.20;;;3.80;99.90;;;;;;5092628;28;20056;-79
2024/01/13 06:12:49;;;;;;;6.77;2.33;;;3.80;99.90;;;;;;5092577;28;20078;-79
2024/01/13 06:15:16;;;;;;;6.57;2.23;;;3.80;99.90;;;;;;5092265;28;20367;-79
2024/01/13 06:17:42;;;;;;;7.47;2.25;;;3.80;99.90;;;;;;5092701;28;20109;-79
2024/01/13 06:20:08;;;;;;;8.47;2.40;;;3.80;99.90;;;;;;5092378;28;20130;-79
2024/01/13 06:22:34;;;;;;;6.95;2.20;;;3.80;99.90;;;;;;5091649;28;20486;-79
2024/01/13 06:25:00;;;;;;;7.70;2.07;;;3.80;99.90;;;;;;5091344;28;20055;-79
2024/01/13 06:27:26;;;;;;;5.13;1.80;;;3.80;99.90;;;;;;5092935;28;20048;-79
2024/01/13 06:29:51;;;;;;;6.13;1.67;;;3.80;99.90;;;;;;5096327;28;20044;-79
2024/01/13 06:32:17;;;;;;;11.73;2.47;;;3.80;99.90;;;;;;5095755;28;20048;-79
2024/01/13 06:34:43;;;;;;;4.80;1.50;;;3.80;99.90;;;;;;5096244;28;20185;-79
2024/01/13 06:37:08;;;;;;;7.20;1.77;;;3.80;99.90;;;;;;5095764;28;20090;-79
2024/01/13 06:39:34;;;;;;;5.27;1.50;;;3.90;99.90;;;;;;5095926;28;20047;-79
2024/01/13 06:42:02;;;;;;;9.00;1.60;;;3.80;99.90;;;;;;5095218;28;20379;-79
2024/01/13 06:44:28;;;;;;;6.47;1.42;;;3.80;99.90;;;;;;5096155;28;20044;-79
2024/01/13 06:46:54;;;;;;;6.03;1.60;;;3.80;99.90;;;;;;5096098;28;20048;-79
2024/01/13 06:49:19;;;;;;;5.57;1.37;;;3.80;99.90;;;;;;5094684;28;20127;-79
2024/01/13 06:51:45;;;;;;;5.23;1.47;;;3.80;99.90;;;;;;5095480;28;20438;-79
2024/01/13 06:54:11;;;;;;;6.40;1.43;;;3.80;99.90;;;;;;5094491;28;20105;-79
2024/01/13 06:56:37;;;;;;;6.80;1.60;;;3.80;99.90;;;;;;5095369;28;20044;-79
2024/01/13 06:59:03;;;;;;;4.93;1.55;;;3.90;99.90;;;;;;5094552;28;20059;-79
2024/01/13 07:01:29;;;;;;;6.80;1.60;;;3.80;99.90;;;;;;5095607;28;20401;-79
2024/01/13 07:03:55;;;;;;;5.13;1.40;;;3.90;99.90;;;;;;5095511;28;20044;-79
2024/01/13 07:06:21;;;;;;;6.50;1.85;;;3.80;99.90;;;;;;5095160;28;20091;-79
2024/01/13 07:08:47;;;;;;;3.90;1.70;;;3.80;99.90;;;;;;5094463;28;20079;-79
2024/01/13 07:11:13;;;;;;;8.20;2.50;;;3.90;99.90;;;;;;5095110;28;20066;-79
2024/01/13 07:13:43;;;;;;;6.22;2.20;;;3.90;99.90;;;;;;5095239;28;20086;-79
2024/01/13 07:16:12;;;;;;;6.28;2.50;;;3.90;99.90;;;;;;5095190;28;20040;-79
2024/01/13 07:18:37;;;;;;;5.38;2.40;;;3.90;99.90;;;;;;5095282;28;20091;-79
2024/01/13 07:21:05;;;;;;;6.63;2.80;;;3.90;99.90;;;;;;5093914;28;20075;-78
2024/01/13 07:23:32;;;;;;;10.85;3.00;;;3.90;99.90;;;;;;5095051;28;20077;-79
2024/01/13 07:25:58;;;;;;;8.07;3.88;;;3.90;99.90;;;;;;5094924;28;20044;-79
2024/01/13 07:28:24;;;;;;;11.00;3.90;;;3.90;99.90;;;;;;5093897;28;20541;-79
2024/01/13 07:30:50;;;;;;;11.40;4.53;;;3.80;99.90;;;;;;5093806;28;20126;-79
2024/01/13 07:33:15;;;;;;;11.73;5.17;;;3.80;99.90;;;;;;5094837;28;20051;-78
2024/01/13 07:35:41;;;;;;;13.40;5.13;;;3.80;99.90;;;;;;5094999;28;20044;-79
2024/01/13 07:38:07;;;;;;;16.40;5.50;;;3.80;99.90;;;;;;5093874;28;20040;-78
2024/01/13 07:40:33;;;;;;;16.80;6.80;;;3.80;99.90;;;;;;5093303;28;20044;-78
2024/01/13 07:42:58;;;;;;;17.33;7.33;;;3.80;99.90;;;;;;5094834;28;20551;-78
2024/01/13 07:45:24;;;;;;;21.03;10.20;;;3.90;99.90;;;;;;5093603;28;20052;-78
2024/01/13 07:47:50;;;;;;;24.27;12.50;;;3.90;99.90;;;;;;5094797;28;20083;-78
2024/01/13 07:50:18;;;;;;;27.17;12.73;;;3.80;99.90;;;;;;5094207;28;20093;-78
2024/01/13 07:52:44;;;;;;;34.55;19.00;;;3.90;99.90;;;;;;5076311;28;20070;-78
2024/01/13 07:55:10;;;;;;;43.27;22.60;;;3.90;99.90;;;;;;5094114;28;20044;-81
2024/01/13 07:57:36;;;;;;;46.03;24.48;;;3.90;99.90;;;;;;5094527;28;20366;-81
2024/01/13 08:00:03;;;;;;;49.10;28.17;;;4.00;99.90;;;;;;5094549;28;20093;-78
2024/01/13 08:02:28;;;;;;;51.05;28.23;;;3.90;99.90;;;;;;5093093;28;20044;-78
2024/01/13 08:04:54;;;;;;;56.87;28.77;;;3.90;99.90;;;;;;5094307;28;20405;-77
2024/01/13 08:07:23;;;;;;;57.17;29.87;;;4.00;99.90;;;;;;5094140;28;20055;-78
2024/01/13 08:09:49;;;;;;;59.13;30.98;;;4.00;99.90;;;;;;5094024;28;20052;-80
2024/01/13 08:12:15;;;;;;;56.47;29.70;;;4.00;99.90;;;;;;5094108;28;20043;-80
2024/01/13 08:14:40;;;;;;;60.43;30.60;;;3.90;99.90;;;;;;5076364;28;20044;-80
2024/01/13 08:17:07;;;;;;;54.73;31.80;;;4.00;99.90;;;;;;5092668;28;20504;-77
2024/01/13 08:19:33;;;;;;;58.10;31.98;;;4.00;99.90;;;;;;5094248;28;20062;-79
2024/01/13 08:21:58;;;;;;;60.13;31.63;;;3.90;99.90;;;;;;5094035;28;20039;-78
2024/01/13 08:24:24;;;;;;;60.23;32.50;;;4.00;99.90;;;;;;5093518;28;20428;-78
2024/01/13 08:26:50;;;;;;;54.13;32.17;;;4.00;99.90;;;;;;5094015;28;20036;-79
2024/01/13 08:29:15;;;;;;;64.50;32.37;;;3.90;99.90;;;;;;5093793;28;20493;-78
2024/01/13 08:31:41;;;;;;;56.63;32.93;;;4.00;99.90;;;;;;5092856;28;20130;-79
2024/01/13 08:34:10;;;;;;;61.00;34.53;;;3.90;99.90;;;;;;5093728;28;20489;-79
2024/01/13 08:36:36;;;;;;;67.65;35.53;;;3.90;99.90;;;;;;5092634;28;20086;-79
2024/01/13 08:39:02;;;;;;;69.50;35.70;;;4.00;99.90;;;;;;5093547;28;20083;-79
2024/01/13 08:41:27;;;;;;;72.27;37.07;;;4.00;99.90;;;;;;5093462;28;20044;-80
2024/01/13 08:43:53;;;;;;;63.13;38.27;;;4.00;99.90;;;;;;5093633;28;20044;-78
2024/01/13 08:46:19;;;;;;;69.03;39.23;;;4.00;99.90;;;;;;5092383;28;20048;-78
2024/01/13 08:48:44;;;;;;;71.20;37.77;;;4.00;99.90;;;;;;5093601;28;20044;-79
2024/01/13 08:51:10;;;;;;;72.27;41.13;;;4.00;99.90;;;;;;5092017;28;20056;-77
2024/01/13 08:53:36;;;;;;;74.67;41.10;;;4.00;99.90;;;;;;5093399;28;20063;-78
2024/01/13 08:56:02;;;;;;;77.23;41.37;;;4.00;99.90;;;;;;5075758;28;20512;-79
2024/01/13 08:58:28;;;;;;;78.00;44.67;;;4.00;99.90;;;;;;5092033;28;20096;-80
2024/01/13 09:00:54;;;;;;;74.27;44.00;;;4.00;99.90;;;;;;5093399;28;20052;-80
2024/01/13 09:03:21;;;;;;;71.53;45.55;;;4.00;99.90;;;;;;5091883;28;20048;-80
2024/01/13 09:05:47;;;;;;;72.72;44.85;;;4.00;99.90;;;;;;5093238;28;20394;-80
2024/01/13 09:08:13;;;;;;;69.82;44.85;;;4.00;99.90;;;;;;5092893;28;20048;-82
2024/01/13 09:10:39;;;;;;;73.17;46.17;;;4.00;99.90;;;;;;5093726;28;20055;-79
2024/01/13 09:13:05;;;;;;;77.80;46.80;;;4.00;99.90;;;;;;5093201;28;20559;-79
2024/01/13 09:15:31;;;;;;;77.40;46.72;;;4.00;99.90;;;;;;5092066;28;20048;-79
2024/01/13 09:17:57;;;;;;;70.10;46.90;;;4.00;99.90;;;;;;5091878;28;20066;-80
2024/01/13 09:20:24;;;;;;;78.53;48.92;;;4.00;99.90;;;;;;5091999;28;20060;-79
2024/01/13 09:22:49;;;;;;;78.00;49.88;;;4.00;99.90;;;;;;5093094;28;20044;-79
2024/01/13 09:25:15;;;;;;;78.33;49.47;;;4.00;99.90;;;;;;5091847;28;20055;-79
2024/01/13 09:27:41;;;;;;;76.50;49.80;;;4.10;99.90;;;;;;5093265;28;20044;-80
2024/01/13 09:30:07;;;;;;;76.00;49.13;;;4.00;99.90;;;;;;5093039;28;20048;-79
2024/01/13 09:32:33;;;;;;;66.63;47.33;;;4.10;99.90;;;;;;5092814;28;20055;-79
2024/01/13 09:34:58;;;;;;;75.03;49.27;;;4.00;99.90;;;;;;5092105;28;20048;-81
2024/01/13 09:37:24;;;;;;;78.33;49.27;;;4.10;99.90;;;;;;5092391;28;20131;-80
2024/01/13 09:39:51;;;;;;;67.47;46.57;;;4.10;99.90;;;;;;5093036;28;20058;-81
2024/01/13 09:42:38;;;;;;;66.93;44.72;;;4.10;99.90;;;;;;5092665;28;20501;-80
2024/01/13 09:45:06;;;;;;;63.20;43.55;;;4.10;99.90;;;;;;5092957;28;20097;-81
2024/01/13 09:47:32;;;;;;;62.25;44.10;;;4.10;99.90;;;;;;5091689;28;20044;-81
2024/01/13 09:49:58;;;;;;;62.87;43.17;;;4.10;99.90;;;;;;5093030;28;20587;-81
2024/01/13 09:52:25;;;;;;;62.53;41.87;;;4.20;99.90;;;;;;5091517;28;20053;-82
2024/01/13 09:54:58;;;;;;;61.22;41.08;;;4.20;99.90;;;;;;5092871;28;20044;-83
2024/01/13 09:57:25;;;;;;;61.15;41.60;;;4.20;99.90;;;;;;5092591;28;20040;-82
2024/01/13 09:59:50;;;;;;;61.05;41.25;;;4.20;99.90;;;;;;5092665;28;20048;-80
2024/01/13 10:02:16;;;;;;;61.80;40.63;;;4.20;99.90;;;;;;5092948;28;20040;-82
2024/01/13 10:04:43;;;;;;;57.40;40.67;;;4.20;99.90;;;;;;5096318;28;20206;-80
2024/01/13 10:07:10;;;;;;;62.70;41.25;;;4.20;99.90;;;;;;5096702;28;20090;-82
2024/01/13 10:09:38;;;;;;;55.42;38.60;;;4.20;99.90;;;;;;5096356;28;20087;-82
2024/01/13 10:12:08;;;;;;;61.50;40.72;;;4.30;99.90;;;;;;5096441;28;20394;-84
2024/01/13 10:14:36;;;;;;;59.50;39.33;;;4.20;99.90;;;;;;5096281;28;20091;-85
2024/01/13 10:17:05;;;;;;;59.05;38.03;;;4.20;99.90;;;;;;5095084;28;20127;-84
2024/01/13 10:19:38;;;;;;;55.42;36.90;;;4.20;99.90;;;;;;5096304;28;20040;-83
2024/01/13 10:22:05;;;;;;;56.65;37.33;;;4.20;99.90;;;;;;5096345;28;20036;-84
2024/01/13 10:24:31;;;;;;;64.20;37.13;;;4.20;99.90;;;;;;5096118;28;20113;-84
2024/01/13 10:26:57;;;;;;;61.13;35.60;;;4.30;99.90;;;;;;5096153;28;20081;-83
2024/01/13 10:29:23;;;;;;;58.00;36.27;;;4.30;99.90;;;;;;5095076;28;20056;-80
2024/01/13 10:31:53;;;;;;;56.53;35.20;;;4.30;99.90;;;;;;5096227;28;20278;-85
2024/01/13 10:34:19;;;;;;;58.13;34.33;;;4.30;99.90;;;;;;5095099;28;20448;-86
2024/01/13 10:36:45;;;;;;;56.50;31.93;;;4.40;99.90;;;;;;5096113;28;20044;-87
2024/01/13 10:39:11;;;;;;;54.47;31.67;;;4.40;99.90;;;;;;5096271;28;20044;-87
2024/01/13 10:41:51;;;;;;;52.03;30.48;;;4.40;99.90;;;;;;5095752;28;20051;-84
2024/01/13 10:44:17;;;;;;;57.47;31.63;;;4.40;99.90;;;;;;5095818;28;20044;-86
2024/01/13 10:46:51;;;;;;;59.95;30.92;;;4.40;99.90;;;;;;5095746;28;20055;-86
2024/01/13 10:49:29;;;;;;;53.92;29.35;;;4.40;99.90;;;;;;5095793;28;20044;-86
2024/01/13 10:51:58;;;;;;;49.80;29.52;;;4.40;99.90;;;;;;5095507;28;20086;-84
2024/01/13 10:54:28;;;;;;;58.80;29.65;;;4.40;99.90;;;;;;5095466;28;20048;-84
2024/01/13 10:56:54;;;;;;;51.58;29.15;;;4.40;99.90;;;;;;5095604;28;20127;-84
2024/01/13 10:59:22;;;;;;;56.90;28.67;;;4.50;99.90;;;;;;5095754;28;20097;-85
2024/01/13 11:01:49;;;;;;;59.90;29.77;;;4.50;99.90;;;;;;5095361;28;20105;-87
2024/01/13 11:04:16;;;;;;;59.33;28.73;;;4.60;99.90;;;;;;5095608;28;20040;-82
2024/01/13 11:06:42;;;;;;;54.60;28.17;;;4.60;99.90;;;;;;5095249;28;20062;-83
2024/01/13 11:09:12;;;;;;;50.83;27.03;;;4.60;99.90;;;;;;5095284;28;20040;-80
2024/01/13 11:12:01;;;;;;;47.35;25.73;;;4.70;99.90;;;;;;5095355;28;20044;-78
2024/01/13 11:14:35;;;;;;;48.65;24.73;;;4.70;99.90;;;;;;5095030;28;20052;-78
2024/01/13 11:17:02;;;;;;;46.25;24.15;;;4.70;99.90;;;;;;5095419;28;20044;-87
2024/01/13 11:19:31;;;;;;;41.63;22.85;;;4.80;99.90;;;;;;5095101;28;20087;-81
2024/01/13 11:21:57;;;;;;;45.90;22.23;;;4.80;99.90;;;;;;5095373;28;20097;-81
2024/01/13 11:24:24;;;;;;;43.33;21.87;;;4.80;99.90;;;;;;5077537;28;20440;-81
2024/01/13 11:26:50;;;;;;;40.67;21.48;;;4.80;99.90;;;;;;5094809;28;20079;-81
2024/01/13 11:29:25;;;;;;;42.05;20.52;;;4.80;99.90;;;;;;5094855;28;20048;-80
2024/01/13 11:31:58;;;;;;;42.95;20.80;;;4.80;99.90;;;;;;5094686;28;20052;-79
2024/01/13 11:34:26;;;;;;;38.85;19.35;;;4.80;99.90;;;;;;5094998;28;20505;-78
2024/01/13 11:36:56;;;;;;;46.60;19.85;;;4.80;99.90;;;;;;5094634;28;20501;-76
2024/01/13 11:39:22;;;;;;;36.75;16.98;;;4.80;99.90;;;;;;5095024;28;20044;-76
2024/01/13 11:41:55;;;;;;;33.53;16.48;;;4.80;99.90;;;;;;5094628;28;20070;-78
2024/01/13 11:44:34;;;;;;;34.17;15.98;;;4.80;99.90;;;;;;5094688;28;20635;-76
2024/01/13 11:47:07;;;;;;;37.55;15.65;;;4.90;99.90;;;;;;5094810;28;20044;-77
2024/01/13 11:49:46;;;;;;;26.55;12.82;;;5.00;99.90;;;;;;5094740;28;20185;-76
2024/01/13 11:52:16;;;;;;;33.67;11.88;;;5.00;99.90;;;;;;5095037;28;20140;-76
2024/01/13 11:54:46;;;;;;;28.70;11.40;;;5.00;99.90;;;;;;5094354;28;20040;-75
2024/01/13 11:57:15;;;;;;;27.75;10.07;;;5.00;99.90;;;;;;5094385;28;20201;-77
2024/01/13 11:59:41;;;;;;;19.25;9.48;;;5.00;99.90;;;;;;5094483;28;20050;-81
2024/01/13 12:02:08;;;;;;;23.47;9.40;;;5.10;99.90;;;;;;5094741;28;20043;-79
2024/01/13 12:04:35;;;;;;;23.92;10.35;;;5.10;99.90;;;;;;5094461;28;20040;-79
2024/01/13 12:07:01;;;;;;;28.00;9.63;;;5.10;99.90;;;;;;5093346;28;20451;-79
2024/01/13 12:09:28;;;;;;;20.77;9.03;;;5.10;99.90;;;;;;5094148;28;20048;-77
2024/01/13 12:11:56;;;;;;;23.52;9.50;;;5.10;99.90;;;;;;5093829;28;20552;-77
2024/01/13 12:14:29;;;;;;;23.83;8.15;;;5.10;99.90;;;;;;5094605;28;20126;-78
2024/01/13 12:16:59;;;;;;;26.02;8.30;;;5.10;99.90;;;;;;5075998;28;20048;-78
2024/01/13 12:19:32;;;;;;;17.42;7.35;;;5.10;99.90;;;;;;5094064;28;20055;-78
2024/01/13 12:21:58;;;;;;;18.05;6.78;;;5.10;99.90;;;;;;5092660;28;20052;-78
2024/01/13 12:24:31;;;;;;;20.73;6.53;;;5.10;99.90;;;;;;5093583;28;20141;-78
2024/01/13 12:26:58;;;;;;;16.67;5.60;;;5.10;99.90;;;;;;5093857;28;20040;-77
2024/01/13 12:29:29;;;;;;;15.32;6.47;;;5.10;99.90;;;;;;5093735;28;20486;-79
2024/01/13 12:31:59;;;;;;;17.50;5.65;;;5.10;99.90;;;;;;5093704;28;20468;-78
2024/01/13 12:34:25;;;;;;;18.13;5.82;;;5.20;99.90;;;;;;5093673;28;20097;-78
2024/01/13 12:36:55;;;;;;;16.55;5.43;;;5.20;99.90;;;;;;5093392;28;20044;-78
2024/01/13 12:39:21;;;;;;;16.30;5.68;;;5.20;99.90;;;;;;5093798;28;20044;-79
2024/01/13 12:41:47;;;;;;;13.93;5.32;;;5.20;99.90;;;;;;5093507;28;20040;-81